sensor_id;sensor_type;location;lat;lon;timestamp;P1;durP1;ratioP1;P2;durP2;ratioP2
35969;SDS011;22448;51.298;6.430;2022-12-26T00:06:38;8.77;;;5.80;;
35969;SDS011;22448;51.298;6.430;2022-12-26T01:48:17;7.63;;;6.10;;
35969;SDS011;22448;51.298;6.430;2022-12-26T02:43:16;15.50;;;9.65;;
35969;SDS011;22448;51.298;6.430;2022-12-26T05:56:45;22.92;;;13.75;;
35969;SDS011;22448;51.298;6.430;2022-12-26T06:14:14;21.85;;;12.80;;
35969;SDS011;22448;51.298;6.430;2022-12-26T06:22:47;17.88;;;11.98;;
35969;SDS011;22448;51.298;6.430;2022-12-26T07:14:24;21.05;;;9.48;;
35969;SDS011;22448;51.298;6.430;2022-12-26T07:16:53;16.33;;;9.88;;
35969;SDS011;22448;51.298;6.430;2022-12-26T07:19:52;17.02;;;9.15;;
35969;SDS011;22448;51.298;6.430;2022-12-26T07:22:19;13.23;;;8.75;;
35969;SDS011;22448;51.298;6.430;2022-12-26T07:24:46;16.63;;;9.05;;
35969;SDS011;22448;51.298;6.430;2022-12-26T07:27:13;13.55;;;8.77;;
35969;SDS011;22448;51.298;6.430;2022-12-26T07:29:40;19.02;;;9.07;;
35969;SDS011;22448;51.298;6.430;2022-12-26T07:32:07;14.52;;;8.20;;
35969;SDS011;22448;51.298;6.430;2022-12-26T07:34:34;11.93;;;7.32;;
35969;SDS011;22448;51.298;6.430;2022-12-26T07:37:01;13.20;;;7.70;;
35969;SDS011;22448;51.298;6.430;2022-12-26T07:39:29;13.63;;;7.68;;
35969;SDS011;22448;51.298;6.430;2022-12-26T07:41:56;11.60;;;6.43;;
35969;SDS011;22448;51.298;6.430;2022-12-26T07:44:31;9.65;;;6.00;;
35969;SDS011;22448;51.298;6.430;2022-12-26T07:46:59;10.68;;;5.65;;
35969;SDS011;22448;51.298;6.430;2022-12-26T07:49:26;9.00;;;4.90;;
35969;SDS011;22448;51.298;6.430;2022-12-26T07:51:53;5.53;;;4.20;;
35969;SDS011;22448;51.298;6.430;2022-12-26T07:54:20;7.78;;;4.30;;
35969;SDS011;22448;51.298;6.430;2022-12-26T07:56:47;7.03;;;4.30;;
35969;SDS011;22448;51.298;6.430;2022-12-26T07:59:15;8.18;;;3.42;;
35969;SDS011;22448;51.298;6.430;2022-12-26T08:01:43;6.68;;;3.35;;
35969;SDS011;22448;51.298;6.430;2022-12-26T08:04:11;6.18;;;3.63;;
35969;SDS011;22448;51.298;6.430;2022-12-26T08:06:41;3.78;;;2.72;;
35969;SDS011;22448;51.298;6.430;2022-12-26T08:09:11;6.25;;;2.70;;
35969;SDS011;22448;51.298;6.430;2022-12-26T08:11:41;5.35;;;2.80;;
35969;SDS011;22448;51.298;6.430;2022-12-26T08:14:10;5.78;;;2.33;;
35969;SDS011;22448;51.298;6.430;2022-12-26T08:16:38;8.40;;;2.25;;
35969;SDS011;22448;51.298;6.430;2022-12-26T08:19:07;9.52;;;2.28;;
35969;SDS011;22448;51.298;6.430;2022-12-26T08:21:34;5.15;;;2.13;;
35969;SDS011;22448;51.298;6.430;2022-12-26T08:24:01;4.28;;;2.05;;
35969;SDS011;22448;51.298;6.430;2022-12-26T08:26:28;3.65;;;2.03;;
35969;SDS011;22448;51.298;6.430;2022-12-26T08:28:56;4.60;;;2.13;;
35969;SDS011;22448;51.298;6.430;2022-12-26T08:31:23;6.07;;;2.42;;
35969;SDS011;22448;51.298;6.430;2022-12-26T08:33:55;6.03;;;1.48;;
35969;SDS011;22448;51.298;6.430;2022-12-26T08:36:23;2.47;;;1.90;;
35969;SDS011;22448;51.298;6.430;2022-12-26T08:38:50;5.07;;;1.75;;
35969;SDS011;22448;51.298;6.430;2022-12-26T08:41:18;2.72;;;1.50;;
35969;SDS011;22448;51.298;6.430;2022-12-26T08:43:49;7.10;;;1.70;;
35969;SDS011;22448;51.298;6.430;2022-12-26T08:46:37;10.10;;;2.00;;
35969;SDS011;22448;51.298;6.430;2022-12-26T08:49:04;4.25;;;1.70;;
35969;SDS011;22448;51.298;6.430;2022-12-26T08:51:31;3.47;;;1.33;;
35969;SDS011;22448;51.298;6.430;2022-12-26T08:53:58;5.55;;;1.85;;
35969;SDS011;22448;51.298;6.430;2022-12-26T08:56:26;5.00;;;1.60;;
35969;SDS011;22448;51.298;6.430;2022-12-26T08:58:54;2.88;;;1.50;;
35969;SDS011;22448;51.298;6.430;2022-12-26T09:01:22;4.50;;;1.70;;
35969;SDS011;22448;51.298;6.430;2022-12-26T09:03:52;4.03;;;1.40;;
35969;SDS011;22448;51.298;6.430;2022-12-26T09:06:20;4.38;;;1.50;;
35969;SDS011;22448;51.298;6.430;2022-12-26T09:08:48;4.30;;;1.50;;
35969;SDS011;22448;51.298;6.430;2022-12-26T09:11:16;6.60;;;2.00;;
35969;SDS011;22448;51.298;6.430;2022-12-26T09:13:47;5.93;;;2.10;;
35969;SDS011;22448;51.298;6.430;2022-12-26T09:16:15;8.70;;;2.35;;
35969;SDS011;22448;51.298;6.430;2022-12-26T09:18:45;5.03;;;2.50;;
35969;SDS011;22448;51.298;6.430;2022-12-26T09:21:14;4.00;;;2.55;;
35969;SDS011;22448;51.298;6.430;2022-12-26T09:23:42;12.68;;;2.60;;
35969;SDS011;22448;51.298;6.430;2022-12-26T09:26:11;8.10;;;2.30;;
35969;SDS011;22448;51.298;6.430;2022-12-26T09:28:43;12.68;;;2.40;;
35969;SDS011;22448;51.298;6.430;2022-12-26T09:31:13;10.88;;;2.40;;
35969;SDS011;22448;51.298;6.430;2022-12-26T09:33:43;11.77;;;1.90;;
35969;SDS011;22448;51.298;6.430;2022-12-26T09:36:13;8.68;;;2.20;;
35969;SDS011;22448;51.298;6.430;2022-12-26T09:38:46;5.55;;;2.10;;
35969;SDS011;22448;51.298;6.430;2022-12-26T09:44:08;9.23;;;2.53;;
35969;SDS011;22448;51.298;6.430;2022-12-26T09:47:06;10.85;;;1.90;;
35969;SDS011;22448;51.298;6.430;2022-12-26T09:49:41;10.95;;;1.60;;
35969;SDS011;22448;51.298;6.430;2022-12-26T10:01:17;10.02;;;1.80;;
35969;SDS011;22448;51.298;6.430;2022-12-26T10:03:54;4.90;;;1.45;;
35969;SDS011;22448;51.298;6.430;2022-12-26T10:09:09;5.75;;;1.67;;
35969;SDS011;22448;51.298;6.430;2022-12-26T10:14:39;5.65;;;1.40;;
35969;SDS011;22448;51.298;6.430;2022-12-26T10:17:41;12.65;;;1.73;;
35969;SDS011;22448;51.298;6.430;2022-12-26T10:20:16;7.20;;;2.03;;
35969;SDS011;22448;51.298;6.430;2022-12-26T10:25:39;4.25;;;1.67;;
35969;SDS011;22448;51.298;6.430;2022-12-26T10:30:50;8.87;;;1.63;;
35969;SDS011;22448;51.298;6.430;2022-12-26T10:33:21;4.00;;;1.08;;
35969;SDS011;22448;51.298;6.430;2022-12-26T10:36:10;8.25;;;1.35;;
35969;SDS011;22448;51.298;6.430;2022-12-26T10:38:49;7.95;;;1.65;;
35969;SDS011;22448;51.298;6.430;2022-12-26T10:41:22;7.47;;;1.67;;
35969;SDS011;22448;51.298;6.430;2022-12-26T10:46:29;5.00;;;1.10;;
35969;SDS011;22448;51.298;6.430;2022-12-26T10:48:59;7.82;;;1.85;;
35969;SDS011;22448;51.298;6.430;2022-12-26T10:51:27;7.70;;;1.80;;
35969;SDS011;22448;51.298;6.430;2022-12-26T10:53:54;7.85;;;1.92;;
35969;SDS011;22448;51.298;6.430;2022-12-26T10:56:22;4.10;;;0.82;;
35969;SDS011;22448;51.298;6.430;2022-12-26T10:59:01;8.27;;;1.42;;
35969;SDS011;22448;51.298;6.430;2022-12-26T11:01:31;6.45;;;1.67;;
35969;SDS011;22448;51.298;6.430;2022-12-26T11:04:05;3.33;;;1.50;;
35969;SDS011;22448;51.298;6.430;2022-12-26T11:06:49;5.82;;;1.75;;
35969;SDS011;22448;51.298;6.430;2022-12-26T11:09:33;7.22;;;1.50;;
35969;SDS011;22448;51.298;6.430;2022-12-26T11:12:21;5.90;;;1.70;;
35969;SDS011;22448;51.298;6.430;2022-12-26T11:14:55;8.65;;;1.98;;
35969;SDS011;22448;51.298;6.430;2022-12-26T11:17:30;7.50;;;1.70;;
35969;SDS011;22448;51.298;6.430;2022-12-26T11:23:11;7.43;;;1.58;;
35969;SDS011;22448;51.298;6.430;2022-12-26T11:25:52;9.63;;;2.00;;
35969;SDS011;22448;51.298;6.430;2022-12-26T11:28:34;7.50;;;1.13;;
35969;SDS011;22448;51.298;6.430;2022-12-26T11:31:06;6.80;;;1.70;;
35969;SDS011;22448;51.298;6.430;2022-12-26T11:33:44;4.17;;;1.23;;
35969;SDS011;22448;51.298;6.430;2022-12-26T11:36:16;5.00;;;1.70;;
35969;SDS011;22448;51.298;6.430;2022-12-26T11:38:57;4.03;;;1.10;;
35969;SDS011;22448;51.298;6.430;2022-12-26T11:44:01;6.80;;;1.45;;
35969;SDS011;22448;51.298;6.430;2022-12-26T11:49:53;3.35;;;1.75;;
35969;SDS011;22448;51.298;6.430;2022-12-26T11:52:33;8.05;;;1.85;;
35969;SDS011;22448;51.298;6.430;2022-12-26T11:55:00;8.27;;;2.67;;
35969;SDS011;22448;51.298;6.430;2022-12-26T11:57:56;5.50;;;1.70;;
35969;SDS011;22448;51.298;6.430;2022-12-26T12:11:52;6.38;;;2.17;;
35969;SDS011;22448;51.298;6.430;2022-12-26T12:28:15;19.60;;;6.65;;
35969;SDS011;22448;51.298;6.430;2022-12-26T12:36:28;46.58;;;21.02;;
35969;SDS011;22448;51.298;6.430;2022-12-26T12:44:52;18.60;;;8.05;;
35969;SDS011;22448;51.298;6.430;2022-12-26T12:47:49;19.08;;;11.02;;
35969;SDS011;22448;51.298;6.430;2022-12-26T12:54:19;17.30;;;8.80;;
35969;SDS011;22448;51.298;6.430;2022-12-26T13:00:31;15.52;;;3.92;;
35969;SDS011;22448;51.298;6.430;2022-12-26T13:03:11;7.30;;;1.75;;
35969;SDS011;22448;51.298;6.430;2022-12-26T13:08:38;10.88;;;4.18;;
35969;SDS011;22448;51.298;6.430;2022-12-26T13:11:31;22.85;;;7.78;;
35969;SDS011;22448;51.298;6.430;2022-12-26T13:14:06;41.58;;;20.20;;
35969;SDS011;22448;51.298;6.430;2022-12-26T13:16:49;20.38;;;8.65;;
35969;SDS011;22448;51.298;6.430;2022-12-26T13:19:25;18.60;;;7.72;;
35969;SDS011;22448;51.298;6.430;2022-12-26T13:22:10;11.30;;;3.08;;
35969;SDS011;22448;51.298;6.430;2022-12-26T13:24:42;11.68;;;2.80;;
35969;SDS011;22448;51.298;6.430;2022-12-26T13:29:50;14.25;;;5.40;;
35969;SDS011;22448;51.298;6.430;2022-12-26T13:34:47;8.98;;;2.38;;
35969;SDS011;22448;51.298;6.430;2022-12-26T13:42:43;11.32;;;2.70;;
35969;SDS011;22448;51.298;6.430;2022-12-26T13:48:44;8.27;;;1.88;;
35969;SDS011;22448;51.298;6.430;2022-12-26T13:51:02;12.00;;;2.10;;
35969;SDS011;22448;51.298;6.430;2022-12-26T13:56:02;8.75;;;1.98;;
35969;SDS011;22448;51.298;6.430;2022-12-26T14:04:26;9.23;;;1.83;;
35969;SDS011;22448;51.298;6.430;2022-12-26T14:15:32;18.92;;;2.92;;
35969;SDS011;22448;51.298;6.430;2022-12-26T14:32:15;25.25;;;12.35;;
35969;SDS011;22448;51.298;6.430;2022-12-26T14:35:07;30.98;;;17.50;;
35969;SDS011;22448;51.298;6.430;2022-12-26T14:40:26;26.60;;;14.25;;
35969;SDS011;22448;51.298;6.430;2022-12-26T14:45:39;18.27;;;8.00;;
35969;SDS011;22448;51.298;6.430;2022-12-26T15:12:10;8.43;;;2.10;;
35969;SDS011;22448;51.298;6.430;2022-12-26T15:17:15;20.33;;;7.00;;
35969;SDS011;22448;51.298;6.430;2022-12-26T15:22:56;33.58;;;16.25;;
35969;SDS011;22448;51.298;6.430;2022-12-26T15:44:07;23.10;;;9.25;;
35969;SDS011;22448;51.298;6.430;2022-12-26T15:49:24;24.13;;;11.23;;
35969;SDS011;22448;51.298;6.430;2022-12-26T15:52:24;19.67;;;8.38;;
35969;SDS011;22448;51.298;6.430;2022-12-26T15:58:22;31.95;;;10.07;;
35969;SDS011;22448;51.298;6.430;2022-12-26T16:01:32;18.77;;;7.78;;
35969;SDS011;22448;51.298;6.430;2022-12-26T16:04:17;11.60;;;6.00;;
35969;SDS011;22448;51.298;6.430;2022-12-26T16:06:55;17.67;;;6.38;;
35969;SDS011;22448;51.298;6.430;2022-12-26T16:09:45;19.10;;;7.70;;
35969;SDS011;22448;51.298;6.430;2022-12-26T16:17:36;17.10;;;8.85;;
35969;SDS011;22448;51.298;6.430;2022-12-26T16:23:06;21.50;;;11.18;;
35969;SDS011;22448;51.298;6.430;2022-12-26T16:25:38;16.10;;;3.70;;
35969;SDS011;22448;51.298;6.430;2022-12-26T16:28:11;14.68;;;5.50;;
35969;SDS011;22448;51.298;6.430;2022-12-26T16:30:38;11.95;;;3.17;;
35969;SDS011;22448;51.298;6.430;2022-12-26T16:33:05;8.70;;;2.83;;
35969;SDS011;22448;51.298;6.430;2022-12-26T16:35:33;8.32;;;2.42;;
35969;SDS011;22448;51.298;6.430;2022-12-26T16:38:03;10.80;;;2.17;;
35969;SDS011;22448;51.298;6.430;2022-12-26T16:40:43;9.80;;;2.45;;
35969;SDS011;22448;51.298;6.430;2022-12-26T16:45:46;5.25;;;2.90;;
35969;SDS011;22448;51.298;6.430;2022-12-26T16:48:20;12.85;;;4.38;;
35969;SDS011;22448;51.298;6.430;2022-12-26T16:58:34;13.20;;;3.58;;
35969;SDS011;22448;51.298;6.430;2022-12-26T17:48:56;21.05;;;8.35;;
35969;SDS011;22448;51.298;6.430;2022-12-26T17:51:25;21.23;;;7.05;;
35969;SDS011;22448;51.298;6.430;2022-12-26T17:54:17;16.27;;;5.18;;
35969;SDS011;22448;51.298;6.430;2022-12-26T17:56:45;15.50;;;4.57;;
35969;SDS011;22448;51.298;6.430;2022-12-26T18:30:35;50.70;;;11.80;;
35969;SDS011;22448;51.298;6.430;2022-12-26T18:39:21;47.97;;;11.75;;
35969;SDS011;22448;51.298;6.430;2022-12-26T18:41:48;53.42;;;12.93;;
35969;SDS011;22448;51.298;6.430;2022-12-26T18:44:15;31.50;;;8.93;;
35969;SDS011;22448;51.298;6.430;2022-12-26T18:46:44;33.75;;;9.65;;
35969;SDS011;22448;51.298;6.430;2022-12-26T18:49:12;41.47;;;9.07;;
35969;SDS011;22448;51.298;6.430;2022-12-26T18:51:39;46.17;;;12.98;;
35969;SDS011;22448;51.298;6.430;2022-12-26T18:54:06;31.27;;;7.53;;
35969;SDS011;22448;51.298;6.430;2022-12-26T18:56:33;15.90;;;5.25;;
35969;SDS011;22448;51.298;6.430;2022-12-26T18:59:00;31.52;;;8.23;;
35969;SDS011;22448;51.298;6.430;2022-12-26T19:01:27;28.67;;;6.80;;
35969;SDS011;22448;51.298;6.430;2022-12-26T19:03:53;21.77;;;5.43;;
35969;SDS011;22448;51.298;6.430;2022-12-26T19:06:25;24.98;;;7.05;;
35969;SDS011;22448;51.298;6.430;2022-12-26T19:08:53;16.55;;;4.75;;
35969;SDS011;22448;51.298;6.430;2022-12-26T19:14:30;28.73;;;8.00;;
35969;SDS011;22448;51.298;6.430;2022-12-26T19:16:57;30.40;;;7.80;;
35969;SDS011;22448;51.298;6.430;2022-12-26T19:19:28;46.83;;;11.80;;
35969;SDS011;22448;51.298;6.430;2022-12-26T19:21:58;37.35;;;9.65;;
35969;SDS011;22448;51.298;6.430;2022-12-26T19:24:25;31.95;;;8.70;;
35969;SDS011;22448;51.298;6.430;2022-12-26T19:26:52;40.63;;;11.20;;
35969;SDS011;22448;51.298;6.430;2022-12-26T19:29:20;42.97;;;11.18;;
35969;SDS011;22448;51.298;6.430;2022-12-26T19:31:46;26.23;;;8.90;;
35969;SDS011;22448;51.298;6.430;2022-12-26T19:34:13;37.17;;;10.60;;
35969;SDS011;22448;51.298;6.430;2022-12-26T19:36:40;35.25;;;11.80;;
35969;SDS011;22448;51.298;6.430;2022-12-26T19:39:07;33.97;;;13.30;;
35969;SDS011;22448;51.298;6.430;2022-12-26T19:41:33;48.10;;;15.93;;
35969;SDS011;22448;51.298;6.430;2022-12-26T19:44:00;28.05;;;9.52;;
35969;SDS011;22448;51.298;6.430;2022-12-26T19:46:27;22.92;;;6.30;;
35969;SDS011;22448;51.298;6.430;2022-12-26T19:48:54;16.08;;;5.47;;
35969;SDS011;22448;51.298;6.430;2022-12-26T19:51:20;16.67;;;5.03;;
35969;SDS011;22448;51.298;6.430;2022-12-26T19:53:47;23.30;;;5.53;;
35969;SDS011;22448;51.298;6.430;2022-12-26T19:56:19;20.77;;;4.18;;
35969;SDS011;22448;51.298;6.430;2022-12-26T19:58:49;20.30;;;4.43;;
35969;SDS011;22448;51.298;6.430;2022-12-26T20:01:24;18.33;;;5.13;;
35969;SDS011;22448;51.298;6.430;2022-12-26T20:03:56;20.65;;;4.80;;
35969;SDS011;22448;51.298;6.430;2022-12-26T20:06:25;26.25;;;5.05;;
35969;SDS011;22448;51.298;6.430;2022-12-26T20:08:55;13.77;;;4.38;;
35969;SDS011;22448;51.298;6.430;2022-12-26T20:11:24;31.00;;;5.90;;
35969;SDS011;22448;51.298;6.430;2022-12-26T20:13:54;21.50;;;4.88;;
35969;SDS011;22448;51.298;6.430;2022-12-26T20:16:23;22.25;;;6.10;;
35969;SDS011;22448;51.298;6.430;2022-12-26T20:19:10;29.17;;;6.63;;
35969;SDS011;22448;51.298;6.430;2022-12-26T20:21:37;19.73;;;4.88;;
35969;SDS011;22448;51.298;6.430;2022-12-26T20:24:04;13.80;;;4.93;;
35969;SDS011;22448;51.298;6.430;2022-12-26T20:26:31;31.75;;;4.90;;
35969;SDS011;22448;51.298;6.430;2022-12-26T20:28:58;20.58;;;4.07;;
35969;SDS011;22448;51.298;6.430;2022-12-26T20:31:27;19.35;;;3.55;;
35969;SDS011;22448;51.298;6.430;2022-12-26T20:33:58;13.65;;;3.70;;
35969;SDS011;22448;51.298;6.430;2022-12-26T20:36:49;20.48;;;3.53;;
35969;SDS011;22448;51.298;6.430;2022-12-26T20:39:16;16.10;;;3.85;;
35969;SDS011;22448;51.298;6.430;2022-12-26T20:41:44;20.90;;;3.88;;
35969;SDS011;22448;51.298;6.430;2022-12-26T20:44:12;20.27;;;3.92;;
35969;SDS011;22448;51.298;6.430;2022-12-26T20:46:39;18.02;;;3.85;;
35969;SDS011;22448;51.298;6.430;2022-12-26T20:49:07;33.17;;;4.25;;
35969;SDS011;22448;51.298;6.430;2022-12-26T20:51:35;21.83;;;4.20;;
35969;SDS011;22448;51.298;6.430;2022-12-26T20:54:08;14.55;;;3.33;;
35969;SDS011;22448;51.298;6.430;2022-12-26T20:56:37;14.15;;;3.67;;
35969;SDS011;22448;51.298;6.430;2022-12-26T20:59:05;16.17;;;3.55;;
35969;SDS011;22448;51.298;6.430;2022-12-26T21:01:32;17.20;;;2.92;;
35969;SDS011;22448;51.298;6.430;2022-12-26T21:04:00;18.52;;;4.07;;
35969;SDS011;22448;51.298;6.430;2022-12-26T21:06:28;19.30;;;3.42;;
35969;SDS011;22448;51.298;6.430;2022-12-26T21:08:57;13.38;;;2.90;;
35969;SDS011;22448;51.298;6.430;2022-12-26T21:11:25;20.77;;;4.20;;
35969;SDS011;22448;51.298;6.430;2022-12-26T21:13:55;19.90;;;2.95;;
35969;SDS011;22448;51.298;6.430;2022-12-26T21:16:32;15.80;;;3.33;;
35969;SDS011;22448;51.298;6.430;2022-12-26T21:19:03;13.02;;;3.00;;
35969;SDS011;22448;51.298;6.430;2022-12-26T21:21:40;14.25;;;3.30;;
35969;SDS011;22448;51.298;6.430;2022-12-26T21:24:10;14.55;;;3.03;;
35969;SDS011;22448;51.298;6.430;2022-12-26T21:26:49;18.05;;;3.22;;
35969;SDS011;22448;51.298;6.430;2022-12-26T21:29:17;14.95;;;3.10;;
35969;SDS011;22448;51.298;6.430;2022-12-26T21:31:47;16.23;;;4.20;;
35969;SDS011;22448;51.298;6.430;2022-12-26T21:34:15;22.75;;;2.97;;
35969;SDS011;22448;51.298;6.430;2022-12-26T21:36:43;22.50;;;3.67;;
35969;SDS011;22448;51.298;6.430;2022-12-26T21:54:02;17.48;;;3.40;;
35969;SDS011;22448;51.298;6.430;2022-12-26T21:56:47;18.00;;;3.33;;
35969;SDS011;22448;51.298;6.430;2022-12-26T21:59:14;16.00;;;3.03;;
35969;SDS011;22448;51.298;6.430;2022-12-26T22:02:00;15.00;;;3.92;;
35969;SDS011;22448;51.298;6.430;2022-12-26T22:04:27;16.60;;;2.92;;
35969;SDS011;22448;51.298;6.430;2022-12-26T22:06:54;21.00;;;3.20;;
35969;SDS011;22448;51.298;6.430;2022-12-26T22:09:21;9.32;;;2.92;;
35969;SDS011;22448;51.298;6.430;2022-12-26T22:11:48;13.38;;;3.53;;
35969;SDS011;22448;51.298;6.430;2022-12-26T22:14:34;16.40;;;2.83;;
35969;SDS011;22448;51.298;6.430;2022-12-26T22:17:00;13.73;;;2.88;;
35969;SDS011;22448;51.298;6.430;2022-12-26T22:19:27;11.32;;;2.60;;
35969;SDS011;22448;51.298;6.430;2022-12-26T22:21:54;20.27;;;3.72;;
35969;SDS011;22448;51.298;6.430;2022-12-26T22:24:21;11.13;;;3.42;;
35969;SDS011;22448;51.298;6.430;2022-12-26T22:26:48;17.50;;;3.30;;
35969;SDS011;22448;51.298;6.430;2022-12-26T22:29:15;12.52;;;3.47;;
35969;SDS011;22448;51.298;6.430;2022-12-26T22:31:42;16.48;;;3.28;;
35969;SDS011;22448;51.298;6.430;2022-12-26T22:34:10;18.25;;;3.50;;
35969;SDS011;22448;51.298;6.430;2022-12-26T22:36:40;17.75;;;4.15;;
35969;SDS011;22448;51.298;6.430;2022-12-26T22:39:11;21.88;;;3.97;;
35969;SDS011;22448;51.298;6.430;2022-12-26T22:41:39;24.58;;;4.30;;
35969;SDS011;22448;51.298;6.430;2022-12-26T22:44:10;16.23;;;3.38;;
35969;SDS011;22448;51.298;6.430;2022-12-26T22:46:41;22.85;;;3.70;;
35969;SDS011;22448;51.298;6.430;2022-12-26T22:49:08;21.20;;;3.97;;
35969;SDS011;22448;51.298;6.430;2022-12-26T22:51:35;15.95;;;3.53;;
35969;SDS011;22448;51.298;6.430;2022-12-26T22:54:03;16.73;;;3.53;;
35969;SDS011;22448;51.298;6.430;2022-12-26T22:56:29;18.33;;;3.88;;
35969;SDS011;22448;51.298;6.430;2022-12-26T22:58:58;15.82;;;3.42;;
35969;SDS011;22448;51.298;6.430;2022-12-26T23:01:26;15.85;;;3.80;;
35969;SDS011;22448;51.298;6.430;2022-12-26T23:03:53;18.13;;;3.83;;
35969;SDS011;22448;51.298;6.430;2022-12-26T23:08:52;24.42;;;3.83;;
35969;SDS011;22448;51.298;6.430;2022-12-26T23:11:22;17.88;;;3.55;;
35969;SDS011;22448;51.298;6.430;2022-12-26T23:13:59;12.77;;;3.65;;
35969;SDS011;22448;51.298;6.430;2022-12-26T23:16:32;21.48;;;3.70;;
35969;SDS011;22448;51.298;6.430;2022-12-26T23:19:10;13.73;;;3.55;;
35969;SDS011;22448;51.298;6.430;2022-12-26T23:22:00;11.27;;;3.22;;
35969;SDS011;22448;51.298;6.430;2022-12-26T23:24:29;20.33;;;3.63;;
35969;SDS011;22448;51.298;6.430;2022-12-26T23:26:58;8.75;;;3.25;;
35969;SDS011;22448;51.298;6.430;2022-12-26T23:29:48;11.80;;;3.63;;
35969;SDS011;22448;51.298;6.430;2022-12-26T23:32:35;27.10;;;3.85;;
35969;SDS011;22448;51.298;6.430;2022-12-26T23:35:05;13.43;;;4.05;;
35969;SDS011;22448;51.298;6.430;2022-12-26T23:37:33;12.63;;;3.85;;
35969;SDS011;22448;51.298;6.430;2022-12-26T23:40:01;22.48;;;4.22;;
35969;SDS011;22448;51.298;6.430;2022-12-26T23:42:29;27.15;;;3.97;;
35969;SDS011;22448;51.298;6.430;2022-12-26T23:44:56;19.88;;;4.32;;
35969;SDS011;22448;51.298;6.430;2022-12-26T23:47:23;18.13;;;4.43;;
35969;SDS011;22448;51.298;6.430;2022-12-26T23:49:50;15.77;;;3.72;;
35969;SDS011;22448;51.298;6.430;2022-12-26T23:52:17;13.23;;;3.65;;
35969;SDS011;22448;51.298;6.430;2022-12-26T23:54:44;24.38;;;4.22;;
35969;SDS011;22448;51.298;6.430;2022-12-26T23:57:11;14.55;;;3.90;;
35969;SDS011;22448;51.298;6.430;2022-12-26T23:59:38;11.95;;;3.95;;
